createdAt,value
2018-07-17T00:02:31.649Z,21.35
2018-07-17T00:07:28.466Z,21.29
2018-07-17T00:12:23.791Z,21.12
2018-07-17T00:17:19.549Z,21.22
2018-07-17T00:22:16.323Z,21.09
2018-07-17T00:27:11.866Z,21.30
2018-07-17T00:32:07.800Z,21.15
2018-07-17T00:37:03.986Z,21.03
2018-07-17T00:41:59.718Z,20.95
2018-07-17T00:46:55.892Z,21.03
2018-07-17T00:51:52.807Z,21.00
2018-07-17T00:56:48.545Z,21.00
2018-07-17T01:01:44.571Z,20.80
2018-07-17T01:06:41.608Z,21.02
2018-07-17T01:11:37.210Z,21.12
2018-07-17T01:16:34.003Z,20.97
2018-07-17T01:21:29.656Z,20.78
2018-07-17T01:26:25.175Z,20.82
2018-07-17T01:31:21.021Z,20.65
2018-07-17T01:36:18.062Z,20.62
2018-07-17T01:41:13.800Z,20.36
2018-07-17T01:46:09.497Z,20.37
2018-07-17T01:51:06.630Z,20.26
2018-07-17T01:56:02.237Z,20.24
2018-07-17T02:00:59.223Z,20.22
2018-07-17T02:05:54.880Z,20.41
2018-07-17T02:10:50.820Z,20.22
2018-07-17T02:15:46.736Z,20.18
2018-07-17T02:20:42.768Z,20.18
2018-07-17T02:25:38.400Z,20.11
2018-07-17T02:30:34.240Z,20.00
2018-07-17T02:35:29.909Z,19.84
2018-07-17T02:40:26.729Z,19.71
2018-07-17T02:45:22.235Z,19.67
2018-07-17T02:50:18.043Z,19.89
2018-07-17T02:55:13.692Z,19.99
2018-07-17T03:00:09.974Z,20.16
2018-07-17T03:05:05.924Z,20.09
2018-07-17T03:10:01.872Z,20.09
2018-07-17T03:14:58.635Z,19.66
2018-07-17T03:19:55.148Z,19.63
2018-07-17T03:24:51.703Z,19.40
2018-07-17T03:29:47.423Z,19.26
2018-07-17T03:34:43.224Z,19.56
2018-07-17T03:39:39.182Z,19.58
2018-07-17T03:44:36.364Z,19.63
2018-07-17T03:49:32.313Z,19.56
2018-07-17T03:54:28.222Z,19.48
2018-07-17T03:59:24.119Z,19.15
2018-07-17T04:04:19.940Z,18.89
2018-07-17T04:09:16.547Z,18.99
2018-07-17T04:14:13.055Z,19.12
2018-07-17T04:19:09.181Z,19.26
2018-07-17T04:24:05.801Z,19.15
2018-07-17T04:29:03.228Z,19.18
2018-07-17T04:33:59.612Z,19.36
2018-07-17T04:38:56.362Z,20.56
2018-07-17T04:43:53.512Z,21.67
2018-07-17T04:48:50.787Z,22.29
2018-07-17T04:53:48.413Z,23.15
2018-07-17T04:58:45.080Z,23.95
2018-07-17T05:03:41.429Z,24.30
2018-07-17T05:08:38.122Z,25.04
2018-07-17T05:13:35.047Z,25.88
2018-07-17T05:18:32.859Z,26.40
2018-07-17T05:23:28.740Z,26.38
2018-07-17T05:28:25.007Z,26.71
2018-07-17T05:33:20.426Z,24.96
2018-07-17T05:38:15.862Z,24.89
2018-07-17T05:43:11.830Z,25.63
2018-07-17T05:48:08.779Z,26.60
2018-07-17T05:53:06.356Z,26.68
2018-07-17T05:58:02.224Z,26.48
2018-07-17T06:02:58.165Z,25.85
2018-07-17T06:07:53.531Z,25.63
2018-07-17T06:12:48.873Z,25.29
2018-07-17T06:17:45.792Z,24.80
2018-07-17T06:22:41.078Z,24.58
2018-07-17T06:27:36.729Z,24.29
2018-07-17T06:32:33.541Z,24.18
2018-07-17T06:37:29.651Z,24.26
2018-07-17T06:42:25.603Z,24.42
2018-07-17T06:47:22.492Z,24.51
2018-07-17T06:52:19.233Z,24.51
2018-07-17T06:57:15.000Z,24.55
2018-07-17T07:02:10.835Z,24.66
2018-07-17T07:07:06.763Z,24.78
2018-07-17T07:12:03.672Z,24.76
2018-07-17T07:16:59.457Z,24.89
2018-07-17T07:21:55.428Z,24.88
2018-07-17T07:26:51.520Z,24.99
2018-07-17T07:31:47.484Z,25.08
2018-07-17T07:36:43.271Z,25.14
2018-07-17T07:41:39.323Z,25.33
2018-07-17T07:46:35.989Z,25.60
2018-07-17T07:51:33.201Z,25.85
2018-07-17T07:56:29.383Z,26.60
2018-07-17T08:01:30.623Z,28.89
2018-07-17T08:06:30.169Z,30.39
2018-07-17T08:11:27.941Z,31.70
2018-07-17T08:16:25.672Z,32.63
2018-07-17T08:21:22.926Z,32.48
2018-07-17T08:26:21.034Z,32.58
2018-07-17T08:31:18.604Z,33.67
2018-07-17T08:36:16.162Z,34.06
2018-07-17T08:41:12.675Z,34.38
2018-07-17T08:46:09.290Z,33.99
2018-07-17T08:51:06.848Z,33.20
2018-07-17T08:56:03.780Z,33.73
2018-07-17T09:00:59.269Z,33.64
2018-07-17T09:05:56.009Z,33.27
2018-07-17T09:10:53.398Z,34.11
2018-07-17T09:15:49.482Z,33.50
2018-07-17T09:20:46.741Z,33.59
2018-07-17T09:25:43.107Z,34.58
2018-07-17T09:30:39.298Z,34.48
2018-07-17T09:35:35.342Z,33.84
2018-07-17T09:40:31.599Z,33.80
2018-07-17T09:45:27.844Z,34.27
2018-07-17T09:50:24.043Z,33.49
2018-07-17T09:55:21.016Z,34.06
2018-07-17T10:00:17.096Z,34.66
2018-07-17T10:05:13.754Z,34.97
2018-07-17T10:10:10.116Z,34.93
2018-07-17T10:15:05.320Z,33.83
2018-07-17T10:20:01.833Z,34.05
2018-07-17T10:24:58.255Z,34.10
2018-07-17T10:29:54.591Z,34.48
2018-07-17T10:34:52.220Z,34.17
2018-07-17T10:39:46.405Z,33.37
2018-07-17T10:44:43.136Z,33.83
2018-07-17T10:49:40.220Z,34.48
2018-07-17T10:54:37.109Z,33.61
2018-07-17T10:59:34.374Z,33.67
2018-07-17T11:04:30.624Z,33.73
2018-07-17T11:09:26.885Z,33.79
2018-07-17T11:14:23.256Z,33.95
2018-07-17T11:19:19.832Z,34.33
2018-07-17T11:24:16.506Z,34.60
2018-07-17T11:29:13.948Z,34.71
2018-07-17T11:34:10.643Z,34.74
2018-07-17T11:39:07.236Z,34.45
2018-07-17T11:44:03.932Z,35.11
2018-07-17T11:48:56.439Z,33.39
2018-07-17T11:53:53.788Z,34.81
2018-07-17T11:58:51.474Z,34.60
2018-07-17T12:03:48.244Z,35.05
2018-07-17T12:08:44.896Z,35.51
2018-07-17T12:13:40.311Z,34.24
2018-07-17T12:18:38.076Z,34.30
2018-07-17T12:23:34.379Z,34.71
2018-07-17T12:28:30.882Z,34.73
2018-07-17T12:33:27.043Z,34.35
2018-07-17T12:38:22.386Z,34.47
2018-07-17T12:43:17.123Z,33.73
2018-07-17T12:48:13.962Z,34.38
2018-07-17T12:53:09.325Z,33.81
2018-07-17T12:58:06.273Z,34.08
2018-07-17T13:03:03.862Z,34.92
2018-07-17T13:08:00.901Z,34.29
2018-07-17T13:12:56.373Z,34.14
2018-07-17T13:17:53.222Z,34.10
2018-07-17T13:22:48.387Z,34.32
2018-07-17T13:27:43.072Z,34.11
2018-07-17T13:32:39.546Z,34.51
2018-07-17T13:37:35.677Z,34.89
2018-07-17T13:42:31.600Z,32.90
2018-07-17T13:47:27.058Z,33.37
2018-07-17T13:52:23.020Z,33.81
2018-07-17T13:57:19.387Z,33.30
2018-07-17T14:02:15.363Z,32.49
2018-07-17T14:07:11.009Z,31.70
2018-07-17T14:12:06.702Z,31.77
2018-07-17T14:17:02.127Z,31.39
2018-07-17T14:21:58.088Z,31.12
2018-07-17T14:26:52.865Z,30.62
2018-07-17T14:31:49.227Z,30.40
2018-07-17T14:36:44.187Z,30.61
2018-07-17T14:41:39.936Z,30.39
2018-07-17T14:46:35.543Z,30.30
2018-07-17T14:51:31.406Z,30.39
2018-07-17T14:56:27.383Z,30.37
2018-07-17T15:01:23.374Z,30.21
2018-07-17T15:06:19.619Z,30.10
2018-07-17T15:11:15.689Z,30.21
2018-07-17T15:16:12.765Z,30.25
2018-07-17T15:21:08.449Z,30.28
2018-07-17T15:26:04.640Z,30.16
2018-07-17T15:31:00.653Z,30.06
2018-07-17T15:35:56.580Z,29.95
2018-07-17T15:40:52.599Z,30.06
2018-07-17T15:45:49.169Z,30.06
2018-07-17T15:50:44.885Z,29.81
2018-07-17T15:55:40.851Z,29.79
2018-07-17T16:00:36.901Z,29.81
2018-07-17T16:05:32.910Z,29.82
2018-07-17T16:10:28.707Z,29.66
2018-07-17T16:15:24.646Z,29.68
2018-07-17T16:20:20.484Z,29.51
2018-07-17T16:25:16.600Z,29.34
2018-07-17T16:30:12.813Z,29.26
2018-07-17T16:35:08.840Z,29.24
2018-07-17T16:40:04.788Z,29.20
2018-07-17T16:45:00.761Z,29.19
2018-07-17T16:49:56.857Z,29.16
2018-07-17T16:54:52.671Z,28.96
2018-07-17T16:59:49.723Z,28.94
2018-07-17T17:04:46.475Z,28.94
2018-07-17T17:09:43.391Z,28.74
2018-07-17T17:14:40.120Z,28.67
2018-07-17T17:19:37.088Z,28.62
2018-07-17T17:24:32.752Z,28.44
2018-07-17T17:29:29.629Z,28.42
2018-07-17T17:34:26.488Z,28.37
2018-07-17T17:39:22.307Z,28.29
2018-07-17T17:44:17.999Z,28.15
2018-07-17T17:49:14.993Z,28.14
2018-07-17T17:54:10.598Z,28.19
2018-07-17T17:59:06.713Z,28.14
2018-07-17T18:04:03.199Z,27.95
2018-07-17T18:08:59.035Z,27.86
2018-07-17T18:13:55.983Z,27.77
2018-07-17T18:18:51.716Z,27.63
2018-07-17T18:23:47.607Z,27.70
2018-07-17T18:28:43.450Z,27.44
2018-07-17T18:33:40.534Z,27.37
2018-07-17T18:38:36.220Z,27.42
2018-07-17T18:43:32.197Z,27.32
2018-07-17T18:48:29.233Z,27.30
2018-07-17T18:53:24.889Z,27.18
2018-07-17T18:58:21.154Z,26.97
2018-07-17T19:03:18.004Z,26.73
2018-07-17T19:08:13.428Z,26.47
2018-07-17T19:13:09.403Z,26.09
2018-07-17T19:18:05.518Z,25.93
2018-07-17T19:23:02.383Z,25.88
2018-07-17T19:27:58.902Z,25.55
2018-07-17T19:32:54.500Z,25.35
2018-07-17T19:37:50.433Z,25.36
2018-07-17T19:42:47.420Z,25.23
2018-07-17T19:47:43.080Z,25.18
2018-07-17T19:52:38.924Z,25.04
2018-07-17T19:57:34.901Z,24.80
2018-07-17T20:02:30.614Z,24.47
2018-07-17T20:07:26.582Z,24.26
2018-07-17T20:12:22.335Z,24.23
2018-07-17T20:17:19.232Z,24.01
2018-07-17T20:22:16.201Z,23.93
2018-07-17T20:27:11.721Z,23.78
2018-07-17T20:32:07.429Z,23.81
2018-07-17T20:37:03.459Z,23.58
2018-07-17T20:41:59.494Z,23.31
2018-07-17T20:46:55.360Z,23.28
2018-07-17T20:51:51.173Z,23.28
2018-07-17T20:56:47.230Z,22.93
2018-07-17T21:01:43.113Z,22.87
2018-07-17T21:06:39.667Z,22.78
2018-07-17T21:11:35.958Z,22.47
2018-07-17T21:16:31.889Z,22.65
2018-07-17T21:21:27.876Z,22.55
2018-07-17T21:26:24.929Z,22.36
2018-07-17T21:31:20.444Z,22.11
2018-07-17T21:36:16.242Z,22.17
2018-07-17T21:41:13.192Z,21.83
2018-07-17T21:46:09.195Z,21.73
2018-07-17T21:51:04.992Z,21.76
2018-07-17T21:56:00.851Z,21.39
2018-07-17T22:00:56.697Z,21.32
2018-07-17T22:05:52.352Z,21.22
2018-07-17T22:10:48.490Z,21.35
2018-07-17T22:15:44.709Z,21.42
2018-07-17T22:20:41.538Z,21.14
2018-07-17T22:25:37.723Z,20.92
2018-07-17T22:30:35.197Z,20.93
2018-07-17T22:35:30.635Z,20.95
2018-07-17T22:40:26.645Z,20.56
2018-07-17T22:45:23.229Z,20.72
2018-07-17T22:50:19.246Z,20.65
2018-07-17T22:55:15.402Z,20.56
2018-07-17T23:00:12.304Z,20.40
2018-07-17T23:05:07.776Z,20.37
2018-07-17T23:10:03.969Z,20.28
2018-07-17T23:14:59.812Z,20.18
2018-07-17T23:19:56.042Z,20.10
2018-07-17T23:24:51.966Z,20.32
2018-07-17T23:29:48.224Z,20.13
2018-07-17T23:34:44.180Z,20.06
2018-07-17T23:39:40.902Z,19.79
2018-07-17T23:44:37.159Z,19.95
2018-07-17T23:49:32.661Z,19.86
2018-07-17T23:54:29.389Z,19.82
2018-07-17T23:59:24.893Z,19.62
